Time;durP1;ratioP1;P1;durP2;ratioP2;P2;SDS_P1;SDS_P2;PMS_P1;PMS_P2;Temp;Humidity;BMP_temperature;BMP_pressure;BME280_temperature;BME280_humidity;BME280_pressure;Samples;Min_cycle;Max_cycle;Signal;HPM_P1;HPM_P2
2023/05/26 00:01:05;;;;;;;12.73;11.83;;;11.40;99.90;;;;;;5034437;28;20528;-68
2023/05/26 00:03:34;;;;;;;10.00;9.70;;;11.30;99.90;;;;;;5028280;28;20461;-68
2023/05/26 00:06:02;;;;;;;10.10;9.80;;;11.30;99.90;;;;;;5040408;28;20554;-68
2023/05/26 00:08:30;;;;;;;20.53;11.50;;;11.30;99.90;;;;;;5040015;28;20491;-68
2023/05/26 00:10:57;;;;;;;11.80;11.23;;;11.30;99.90;;;;;;5045150;28;21024;-68
2023/05/26 00:13:27;;;;;;;15.43;10.37;;;11.30;99.90;;;;;;5036766;28;20468;-68
2023/05/26 00:15:53;;;;;;;10.00;9.70;;;11.20;99.90;;;;;;5040290;28;20498;-68
2023/05/26 00:18:26;;;;;;;10.20;9.83;;;11.20;99.90;;;;;;5042835;28;20456;-68
2023/05/26 00:20:53;;;;;;;9.80;9.50;;;11.20;99.90;;;;;;5035037;28;21010;-68
2023/05/26 00:23:20;;;;;;;9.90;9.60;;;11.20;99.90;;;;;;5039104;28;20959;-68
2023/05/26 00:25:47;;;;;;;10.37;9.77;;;11.20;99.90;;;;;;5041077;28;20483;-68
2023/05/26 00:28:13;;;;;;;11.77;10.80;;;11.10;99.90;;;;;;5038550;28;20900;-68
2023/05/26 00:30:42;;;;;;;9.60;9.30;;;11.10;99.90;;;;;;5042965;28;20452;-68
2023/05/26 00:33:10;;;;;;;10.00;9.60;;;11.00;99.90;;;;;;5042910;28;20463;-68
2023/05/26 00:35:38;;;;;;;10.40;10.00;;;11.00;99.90;;;;;;5040382;28;20983;-68
2023/05/26 00:38:06;;;;;;;10.60;10.20;;;11.00;99.90;;;;;;5036667;28;20906;-68
2023/05/26 00:40:33;;;;;;;10.03;9.70;;;11.00;99.90;;;;;;5036602;28;20495;-68
2023/05/26 00:43:01;;;;;;;10.90;10.40;;;10.90;99.90;;;;;;5040325;28;20470;-68
2023/05/26 00:45:29;;;;;;;11.80;11.10;;;10.90;99.90;;;;;;5042712;28;20561;-67
2023/05/26 00:47:58;;;;;;;11.20;10.77;;;10.90;99.90;;;;;;5041848;28;20468;-68
2023/05/26 00:50:27;;;;;;;12.50;11.80;;;10.80;99.90;;;;;;5040234;28;20472;-68
2023/05/26 00:52:53;;;;;;;10.57;10.17;;;10.80;99.90;;;;;;5042931;28;20469;-67
2023/05/26 00:55:23;;;;;;;10.47;10.07;;;10.70;99.90;;;;;;5037953;28;20468;-68
2023/05/26 00:57:51;;;;;;;10.20;9.80;;;10.70;99.90;;;;;;5040794;28;20472;-68
2023/05/26 01:00:19;;;;;;;9.93;9.63;;;10.80;99.90;;;;;;5042397;28;20483;-68
2023/05/26 01:02:47;;;;;;;10.03;9.63;;;10.70;99.90;;;;;;5030367;28;20471;-68
2023/05/26 01:05:16;;;;;;;9.60;9.20;;;10.70;99.90;;;;;;5037999;28;20452;-68
2023/05/26 01:07:43;;;;;;;9.43;9.13;;;10.70;99.90;;;;;;5043110;28;20467;-68
2023/05/26 01:10:11;;;;;;;10.37;9.97;;;10.60;99.90;;;;;;5043093;28;20894;-68
2023/05/26 01:12:44;;;;;;;11.60;10.57;;;10.60;99.90;;;;;;5043533;28;20886;-69
2023/05/26 01:15:14;;;;;;;10.97;10.07;;;10.60;99.90;;;;;;5039362;28;21066;-68
2023/05/26 01:17:45;;;;;;;11.13;10.53;;;10.50;99.90;;;;;;5038815;28;20978;-68
2023/05/26 01:20:25;;;;;;;9.80;9.50;;;10.50;99.90;;;;;;5040776;28;20496;-68
2023/05/26 01:23:10;;;;;;;10.43;10.03;;;10.50;99.90;;;;;;5042408;28;20753;-67
2023/05/26 01:26:03;;;;;;;11.83;10.97;;;10.40;99.90;;;;;;5040851;28;20472;-68
2023/05/26 01:28:33;;;;;;;10.30;9.70;;;10.40;99.90;;;;;;5028764;28;20765;-67
2023/05/26 01:31:01;;;;;;;9.53;9.23;;;10.40;99.90;;;;;;5044975;28;20474;-68
2023/05/26 01:33:28;;;;;;;15.00;12.20;;;10.40;99.90;;;;;;5045875;28;20862;-67
2023/05/26 01:35:54;;;;;;;11.00;10.40;;;10.30;99.90;;;;;;5048054;28;20468;-68
2023/05/26 01:38:22;;;;;;;12.10;11.40;;;10.30;99.90;;;;;;5041328;28;20519;-68
2023/05/26 01:40:54;;;;;;;9.40;9.10;;;10.30;99.90;;;;;;5043273;28;20496;-67
2023/05/26 01:43:28;;;;;;;11.67;11.00;;;10.30;99.90;;;;;;5046979;28;20542;-67
2023/05/26 01:46:03;;;;;;;11.23;10.20;;;10.20;99.90;;;;;;5039986;28;20567;-68
2023/05/26 01:48:32;;;;;;;11.23;10.17;;;10.30;99.90;;;;;;5043970;28;21011;-67
2023/05/26 01:51:02;;;;;;;9.47;9.17;;;10.20;99.90;;;;;;5044978;28;20464;-67
2023/05/26 01:53:33;;;;;;;11.40;10.63;;;10.20;99.90;;;;;;5043477;28;20510;-67
2023/05/26 01:56:01;;;;;;;9.83;9.10;;;10.20;99.90;;;;;;5040047;28;20467;-68
2023/05/26 01:58:30;;;;;;;11.47;9.97;;;10.20;99.90;;;;;;5051652;28;20467;-67
2023/05/26 02:00:59;;;;;;;17.43;11.53;;;10.10;99.90;;;;;;5036567;28;20505;-67
2023/05/26 02:03:26;;;;;;;16.17;11.83;;;10.10;99.90;;;;;;5040003;28;20487;-67
2023/05/26 02:05:53;;;;;;;11.87;10.80;;;10.10;99.90;;;;;;5035827;28;20463;-68
2023/05/26 02:08:22;;;;;;;10.90;10.20;;;10.00;99.90;;;;;;5039000;28;20468;-68
2023/05/26 02:10:49;;;;;;;13.20;12.07;;;10.00;99.90;;;;;;5038968;28;20518;-68
2023/05/26 02:13:16;;;;;;;9.53;9.07;;;10.00;99.90;;;;;;5041641;28;20464;-68
2023/05/26 02:15:43;;;;;;;10.27;9.77;;;10.00;99.90;;;;;;5046634;28;20460;-68
2023/05/26 02:18:11;;;;;;;10.40;10.00;;;9.90;99.90;;;;;;5043010;28;20509;-69
2023/05/26 02:20:38;;;;;;;10.10;9.70;;;9.90;99.90;;;;;;5035777;28;20500;-68
2023/05/26 02:23:05;;;;;;;11.43;10.03;;;9.90;99.90;;;;;;5041207;28;20881;-68
2023/05/26 02:25:32;;;;;;;9.43;9.03;;;9.90;99.90;;;;;;5049589;28;20525;-68
2023/05/26 02:27:59;;;;;;;9.60;9.27;;;9.80;99.90;;;;;;5049965;28;20537;-68
2023/05/26 02:30:26;;;;;;;9.50;9.10;;;9.80;99.90;;;;;;5042234;28;20870;-68
2023/05/26 02:32:54;;;;;;;9.60;9.20;;;9.80;99.90;;;;;;5038917;28;20460;-68
2023/05/26 02:35:23;;;;;;;9.90;9.50;;;9.70;99.90;;;;;;5039841;28;20544;-68
2023/05/26 02:37:50;;;;;;;10.03;9.63;;;9.70;99.90;;;;;;5040240;28;20468;-68
2023/05/26 02:40:17;;;;;;;10.70;10.10;;;9.70;99.90;;;;;;5038689;28;20479;-68
2023/05/26 02:42:44;;;;;;;9.67;9.17;;;9.60;99.90;;;;;;5049333;28;21038;-68
2023/05/26 02:45:12;;;;;;;9.37;9.07;;;9.60;99.90;;;;;;5041199;28;20559;-68
2023/05/26 02:47:39;;;;;;;9.53;9.23;;;9.60;99.90;;;;;;5039607;28;20591;-67
2023/05/26 02:50:07;;;;;;;11.90;10.90;;;9.60;99.90;;;;;;5041946;28;20479;-68
2023/05/26 02:52:35;;;;;;;10.07;9.37;;;9.60;99.90;;;;;;5041755;28;20456;-69
2023/05/26 02:55:02;;;;;;;10.40;9.80;;;9.60;99.90;;;;;;5033667;28;20463;-68
2023/05/26 02:57:29;;;;;;;9.57;9.10;;;9.50;99.90;;;;;;5038292;28;20468;-67
2023/05/26 02:59:57;;;;;;;13.20;10.57;;;9.40;99.90;;;;;;5042583;28;20862;-68
2023/05/26 03:02:24;;;;;;;8.90;8.60;;;9.40;99.90;;;;;;5040710;28;20566;-68
2023/05/26 03:04:52;;;;;;;10.53;9.90;;;9.40;99.90;;;;;;5043626;28;21022;-68
2023/05/26 03:07:19;;;;;;;9.50;9.20;;;9.40;99.90;;;;;;5042058;28;20518;-68
2023/05/26 03:09:48;;;;;;;9.47;9.07;;;9.40;99.90;;;;;;5042545;28;20550;-68
2023/05/26 03:12:15;;;;;;;11.50;10.47;;;9.40;99.90;;;;;;5041895;28;20470;-67
2023/05/26 03:14:43;;;;;;;9.83;9.43;;;9.30;99.90;;;;;;5033641;28;20542;-68
2023/05/26 03:17:11;;;;;;;9.17;8.73;;;9.30;99.90;;;;;;5038381;28;20511;-68
2023/05/26 03:19:38;;;;;;;9.60;9.20;;;9.20;99.90;;;;;;5000962;28;1027554;-68
2023/05/26 03:22:05;;;;;;;8.60;8.30;;;9.20;99.90;;;;;;5041636;28;20603;-68
2023/05/26 03:24:33;;;;;;;10.37;9.77;;;9.20;99.90;;;;;;5044549;28;20789;-68
2023/05/26 03:27:01;;;;;;;10.03;9.57;;;9.10;99.90;;;;;;5038082;28;20483;-68
2023/05/26 03:29:30;;;;;;;9.30;9.00;;;9.10;99.90;;;;;;5039038;28;20472;-67
2023/05/26 03:31:57;;;;;;;10.10;9.50;;;9.10;99.90;;;;;;5038052;28;20832;-68
2023/05/26 03:34:25;;;;;;;8.20;7.90;;;9.00;99.90;;;;;;5044061;28;20510;-68
2023/05/26 03:36:54;;;;;;;8.87;8.57;;;9.00;99.90;;;;;;5041856;28;20460;-68
2023/05/26 03:39:21;;;;;;;10.10;9.63;;;9.00;99.90;;;;;;5035235;28;20464;-68
2023/05/26 03:41:49;;;;;;;20.83;8.87;;;9.00;99.90;;;;;;5039620;28;20499;-68
2023/05/26 03:44:20;;;;;;;12.17;8.73;;;9.00;99.90;;;;;;5049386;28;21021;-68
2023/05/26 03:46:49;;;;;;;8.00;7.70;;;8.90;99.90;;;;;;5042345;28;20474;-68
2023/05/26 03:49:16;;;;;;;8.10;7.80;;;8.90;99.90;;;;;;5046303;28;20456;-68
2023/05/26 03:51:42;;;;;;;14.63;10.50;;;8.90;99.90;;;;;;5035766;28;20462;-68
2023/05/26 03:54:09;;;;;;;8.20;7.90;;;8.90;99.90;;;;;;5038381;28;20496;-68
2023/05/26 03:56:37;;;;;;;7.60;7.30;;;8.80;99.90;;;;;;5038644;28;20468;-68
2023/05/26 03:59:04;;;;;;;10.83;8.40;;;8.80;99.90;;;;;;5043064;28;20466;-68
2023/05/26 04:01:35;;;;;;;8.90;8.20;;;8.70;99.90;;;;;;5039023;28;20492;-68
2023/05/26 04:04:03;;;;;;;9.37;8.80;;;8.70;99.90;;;;;;5039861;28;20491;-68
2023/05/26 04:06:30;;;;;;;131.80;28.00;;;8.70;99.90;;;;;;5045853;28;20459;-68
2023/05/26 04:08:59;;;;;;;7.10;6.90;;;8.70;99.90;;;;;;5036126;28;20488;-68
2023/05/26 04:11:26;;;;;;;8.73;8.23;;;8.70;99.90;;;;;;5035807;28;20460;-68
2023/05/26 04:13:55;;;;;;;8.30;8.00;;;8.60;99.90;;;;;;5039792;28;20464;-68
2023/05/26 04:16:23;;;;;;;8.33;8.03;;;8.70;99.90;;;;;;5047336;28;20460;-68
2023/05/26 04:18:51;;;;;;;7.93;7.63;;;8.70;99.90;;;;;;5035910;28;20456;-68
2023/05/26 04:21:18;;;;;;;8.10;7.80;;;8.80;99.90;;;;;;5035390;28;20649;-68
2023/05/26 04:23:47;;;;;;;8.40;8.00;;;8.80;99.90;;;;;;5042726;28;20503;-68
2023/05/26 04:26:16;;;;;;;8.00;7.70;;;8.80;99.90;;;;;;5034292;28;20993;-68
2023/05/26 04:28:43;;;;;;;8.77;8.37;;;8.80;99.90;;;;;;5037668;28;20517;-68
2023/05/26 04:31:10;;;;;;;7.57;7.37;;;8.80;99.90;;;;;;5037753;28;20554;-68
2023/05/26 04:33:39;;;;;;;7.93;7.57;;;8.90;99.90;;;;;;5039254;28;20530;-68
2023/05/26 04:36:09;;;;;;;12.80;9.97;;;8.90;99.90;;;;;;5032616;28;20803;-69
2023/05/26 04:38:41;;;;;;;8.50;8.13;;;8.90;99.90;;;;;;5038900;28;20471;-68
2023/05/26 04:41:08;;;;;;;12.13;10.73;;;8.90;99.90;;;;;;5034656;28;20997;-68
2023/05/26 04:43:36;;;;;;;7.80;7.50;;;8.90;99.90;;;;;;5039040;28;20464;-68
2023/05/26 04:46:03;;;;;;;8.20;7.80;;;8.90;99.90;;;;;;5031805;28;20472;-67
2023/05/26 04:48:30;;;;;;;9.03;8.37;;;9.00;99.90;;;;;;5036205;28;20460;-67
2023/05/26 04:50:56;;;;;;;10.43;9.67;;;9.10;99.90;;;;;;5039145;28;20481;-68
2023/05/26 04:53:24;;;;;;;14.47;8.70;;;9.20;99.90;;;;;;5036452;28;20460;-68
2023/05/26 04:55:51;;;;;;;7.90;7.60;;;9.30;99.90;;;;;;5039949;28;20484;-68
2023/05/26 04:58:18;;;;;;;14.93;11.23;;;9.40;99.90;;;;;;5043346;28;20456;-68
2023/05/26 05:00:45;;;;;;;15.50;11.70;;;9.50;99.90;;;;;;5041769;28;20483;-68
2023/05/26 05:03:12;;;;;;;10.60;9.73;;;9.50;99.90;;;;;;5038825;28;20456;-68
2023/05/26 05:05:39;;;;;;;9.70;8.90;;;9.50;99.90;;;;;;5034826;28;20471;-68
2023/05/26 05:08:06;;;;;;;11.53;10.70;;;9.60;99.90;;;;;;5040931;28;20452;-68
2023/05/26 05:10:34;;;;;;;12.93;11.70;;;9.60;99.90;;;;;;5040385;28;20517;-69
2023/05/26 05:13:01;;;;;;;13.30;12.13;;;9.60;99.90;;;;;;5033200;28;20536;-68
2023/05/26 05:15:28;;;;;;;13.93;12.70;;;9.60;99.90;;;;;;5036962;28;20467;-68
2023/05/26 05:17:58;;;;;;;12.10;11.13;;;9.70;99.90;;;;;;5039410;28;20464;-68
2023/05/26 05:20:25;;;;;;;22.00;13.13;;;9.80;99.90;;;;;;5038258;28;20492;-68
2023/05/26 05:22:53;;;;;;;12.37;11.50;;;9.90;99.90;;;;;;5042786;28;20812;-68
2023/05/26 05:25:20;;;;;;;11.43;10.80;;;10.00;99.90;;;;;;5039016;28;20517;-68
2023/05/26 05:27:50;;;;;;;9.30;9.00;;;10.10;99.90;;;;;;5033329;28;20492;-68
2023/05/26 05:30:18;;;;;;;13.83;12.47;;;10.40;99.90;;;;;;5040090;28;20570;-68
2023/05/26 05:32:45;;;;;;;17.03;14.80;;;10.50;99.90;;;;;;5046049;28;20495;-68
2023/05/26 05:35:13;;;;;;;12.97;12.30;;;10.60;99.90;;;;;;5044602;28;20827;-68
2023/05/26 05:37:40;;;;;;;14.07;12.87;;;10.80;99.90;;;;;;5035376;28;20467;-68
2023/05/26 05:40:08;;;;;;;11.47;10.90;;;11.00;99.90;;;;;;5034470;28;20518;-68
2023/05/26 05:42:34;;;;;;;10.83;10.43;;;10.80;99.90;;;;;;5039186;28;21151;-68
2023/05/26 05:45:05;;;;;;;15.00;14.10;;;10.90;99.90;;;;;;5030226;28;20800;-68
2023/05/26 05:47:32;;;;;;;11.23;10.70;;;11.10;99.90;;;;;;5032689;28;20476;-68
2023/05/26 05:49:59;;;;;;;11.40;10.90;;;11.40;99.90;;;;;;5032126;28;21070;-68
2023/05/26 05:52:26;;;;;;;13.17;12.47;;;11.60;99.90;;;;;;5039755;28;20471;-68
2023/05/26 05:54:53;;;;;;;13.97;13.23;;;11.80;99.90;;;;;;5031149;28;20518;-68
2023/05/26 05:57:20;;;;;;;13.73;13.13;;;11.60;99.90;;;;;;5036955;28;20468;-68
2023/05/26 05:59:48;;;;;;;12.17;11.67;;;11.60;99.90;;;;;;5042117;28;20529;-68
2023/05/26 06:02:16;;;;;;;15.00;13.67;;;11.80;99.90;;;;;;5040913;28;20632;-68
2023/05/26 06:04:42;;;;;;;15.40;14.57;;;11.90;99.90;;;;;;5027651;28;20514;-69
2023/05/26 06:07:09;;;;;;;12.73;12.23;;;11.80;99.90;;;;;;5034371;28;20468;-68
2023/05/26 06:09:36;;;;;;;13.20;12.60;;;12.10;99.90;;;;;;5034658;28;20826;-67
2023/05/26 06:12:04;;;;;;;15.07;14.07;;;12.10;99.90;;;;;;5038190;28;20459;-69
2023/05/26 06:14:31;;;;;;;15.30;14.40;;;11.90;99.90;;;;;;5035683;28;20858;-68
2023/05/26 06:16:58;;;;;;;13.50;12.40;;;11.70;99.90;;;;;;5040738;28;20523;-68
2023/05/26 06:19:28;;;;;;;15.17;14.17;;;11.80;99.90;;;;;;5040169;28;20494;-68
2023/05/26 06:21:55;;;;;;;17.00;15.23;;;12.00;99.90;;;;;;5039202;28;20487;-68
2023/05/26 06:24:23;;;;;;;12.97;12.47;;;12.10;99.90;;;;;;5040617;28;20513;-68
2023/05/26 06:26:50;;;;;;;16.70;15.60;;;12.10;99.90;;;;;;5040912;28;20814;-69
2023/05/26 06:29:17;;;;;;;15.07;13.97;;;12.20;99.90;;;;;;5047878;28;20517;-69
2023/05/26 06:31:44;;;;;;;14.37;13.67;;;12.00;99.90;;;;;;5049506;28;20576;-68
2023/05/26 06:34:11;;;;;;;16.97;15.43;;;12.00;99.90;;;;;;5045688;28;20455;-68
2023/05/26 06:36:39;;;;;;;16.40;15.00;;;11.80;99.90;;;;;;5033680;28;20792;-69
2023/05/26 06:39:06;;;;;;;14.93;14.03;;;12.00;99.90;;;;;;5042722;28;20825;-69
2023/05/26 06:41:34;;;;;;;17.93;16.50;;;12.30;99.90;;;;;;5045613;28;20497;-68
2023/05/26 06:44:00;;;;;;;14.20;13.23;;;12.50;99.90;;;;;;5046928;28;20455;-69
2023/05/26 06:46:28;;;;;;;16.17;15.13;;;12.50;99.90;;;;;;5035198;28;20472;-68
2023/05/26 06:48:54;;;;;;;14.40;13.50;;;12.70;99.90;;;;;;5045821;28;20973;-68
2023/05/26 06:51:22;;;;;;;27.80;18.30;;;12.90;99.90;;;;;;5037657;28;23071;-69
2023/05/26 06:53:50;;;;;;;16.10;15.00;;;12.90;99.90;;;;;;5042393;28;20459;-68
2023/05/26 06:56:17;;;;;;;17.60;16.27;;;13.00;99.90;;;;;;5037343;28;21006;-69
2023/05/26 06:58:44;;;;;;;21.73;14.10;;;13.40;99.90;;;;;;5043896;28;20456;-69
2023/05/26 07:01:11;;;;;;;16.37;15.20;;;13.20;99.90;;;;;;5039629;28;20453;-68
2023/05/26 07:03:38;;;;;;;14.20;13.10;;;13.10;99.90;;;;;;5032865;28;20496;-68
2023/05/26 07:06:05;;;;;;;14.90;13.40;;;13.20;99.90;;;;;;5039703;28;20521;-68
2023/05/26 07:08:32;;;;;;;14.57;13.90;;;13.30;99.90;;;;;;5032123;28;20947;-68
2023/05/26 07:11:01;;;;;;;18.00;16.20;;;13.70;99.90;;;;;;5031825;28;20455;-68
2023/05/26 07:13:27;;;;;;;17.97;16.13;;;13.60;99.90;;;;;;5033599;28;20480;-69
2023/05/26 07:15:54;;;;;;;18.93;17.70;;;13.80;99.90;;;;;;5036758;28;20812;-69
2023/05/26 07:18:21;;;;;;;21.17;15.40;;;13.80;99.90;;;;;;5038635;28;20802;-69
2023/05/26 07:20:48;;;;;;;15.40;14.40;;;13.80;99.90;;;;;;5033940;28;20484;-69
2023/05/26 07:23:15;;;;;;;15.90;14.80;;;13.90;99.90;;;;;;5032881;28;20484;-69
2023/05/26 07:25:42;;;;;;;19.93;17.97;;;13.80;99.90;;;;;;5040186;28;20491;-68
2023/05/26 07:28:10;;;;;;;16.93;15.60;;;13.50;99.90;;;;;;5040890;28;20507;-68
2023/05/26 07:30:37;;;;;;;18.03;16.20;;;13.80;99.90;;;;;;5032109;28;20465;-68
2023/05/26 07:33:04;;;;;;;16.47;15.27;;;14.00;99.90;;;;;;5038393;28;20530;-69
2023/05/26 07:35:31;;;;;;;21.47;19.40;;;14.40;99.90;;;;;;5034886;28;20464;-69
2023/05/26 07:37:59;;;;;;;14.67;14.07;;;14.30;99.90;;;;;;5031846;28;20719;-68
2023/05/26 07:40:29;;;;;;;16.40;15.13;;;14.50;99.90;;;;;;5032012;28;20467;-68
2023/05/26 07:42:55;;;;;;;17.17;16.00;;;14.70;99.90;;;;;;5030423;28;20492;-69
2023/05/26 07:45:24;;;;;;;18.67;16.93;;;14.60;99.90;;;;;;5032464;28;20456;-69
2023/05/26 07:47:51;;;;;;;15.43;14.73;;;14.60;99.90;;;;;;5032937;28;20464;-68
2023/05/26 07:50:18;;;;;;;15.67;14.97;;;14.40;99.90;;;;;;5031178;28;21037;-68
2023/05/26 07:52:45;;;;;;;17.57;16.00;;;14.40;99.90;;;;;;5032145;28;20534;-69
2023/05/26 07:55:12;;;;;;;15.23;14.53;;;14.30;99.90;;;;;;5037833;28;20479;-67
2023/05/26 07:57:39;;;;;;;17.17;15.83;;;14.50;99.90;;;;;;5036585;28;20460;-68
2023/05/26 08:00:07;;;;;;;15.00;14.30;;;14.60;99.90;;;;;;5031319;28;20465;-68
2023/05/26 08:02:38;;;;;;;15.27;14.57;;;14.90;99.90;;;;;;5029123;28;20484;-68
2023/05/26 08:05:05;;;;;;;16.37;15.57;;;14.90;99.90;;;;;;5032298;28;20558;-68
2023/05/26 08:07:33;;;;;;;17.20;16.10;;;15.10;99.90;;;;;;5028327;28;20467;-68
2023/05/26 08:10:00;;;;;;;20.23;18.57;;;15.10;99.90;;;;;;5024708;28;20555;-68
2023/05/26 08:12:27;;;;;;;15.20;14.50;;;15.10;99.90;;;;;;5037078;28;20475;-68
2023/05/26 08:14:54;;;;;;;17.37;16.47;;;15.70;99.90;;;;;;5032253;28;20543;-68
2023/05/26 08:17:21;;;;;;;15.90;15.10;;;15.80;99.90;;;;;;5030564;28;20459;-69
2023/05/26 08:19:49;;;;;;;19.23;18.10;;;16.30;99.90;;;;;;5030072;28;20795;-68
2023/05/26 08:22:16;;;;;;;15.53;14.73;;;17.10;99.90;;;;;;5033779;28;20488;-67
2023/05/26 08:24:43;;;;;;;17.53;16.50;;;17.60;99.90;;;;;;5030579;28;20465;-68
2023/05/26 08:27:10;;;;;;;18.30;17.10;;;17.50;99.90;;;;;;5033422;28;20590;-68
2023/05/26 08:29:38;;;;;;;15.47;14.77;;;17.70;99.90;;;;;;5033113;28;20460;-68
2023/05/26 08:32:06;;;;;;;16.50;15.70;;;17.40;99.90;;;;;;5040775;28;20456;-68
2023/05/26 08:34:33;;;;;;;17.00;16.10;;;18.60;99.90;;;;;;5040964;28;20464;-68
2023/05/26 08:37:01;;;;;;;18.10;16.47;;;18.60;99.90;;;;;;5036064;28;20463;-68
2023/05/26 08:39:27;;;;;;;19.07;17.27;;;18.90;99.90;;;;;;5036331;28;20869;-66
2023/05/26 08:41:58;;;;;;;16.23;15.43;;;18.70;99.90;;;;;;5030483;28;20479;-68
2023/05/26 08:44:25;;;;;;;15.20;14.53;;;18.90;99.90;;;;;;5027922;28;20452;-68
2023/05/26 08:46:55;;;;;;;17.37;16.37;;;19.30;99.90;;;;;;5033041;28;20472;-69
2023/05/26 08:49:23;;;;;;;17.50;16.23;;;18.90;99.90;;;;;;5036700;28;20452;-68
2023/05/26 08:51:56;;;;;;;17.90;16.90;;;18.80;99.90;;;;;;5036015;28;20461;-68
2023/05/26 08:54:24;;;;;;;16.87;15.87;;;19.00;99.90;;;;;;5030325;28;20530;-69
2023/05/26 08:56:51;;;;;;;17.40;16.17;;;19.10;99.90;;;;;;5029871;28;20467;-68
2023/05/26 08:59:20;;;;;;;17.73;16.20;;;19.30;99.90;;;;;;5032620;28;20467;-68
2023/05/26 09:01:47;;;;;;;16.33;15.50;;;19.20;99.90;;;;;;5032672;28;20468;-68
2023/05/26 09:04:14;;;;;;;16.30;15.50;;;18.80;99.90;;;;;;5035555;28;20481;-69
2023/05/26 09:06:43;;;;;;;23.87;16.50;;;18.80;99.90;;;;;;5033859;28;20459;-68
2023/05/26 09:09:11;;;;;;;17.23;15.80;;;19.40;99.90;;;;;;5031073;28;20971;-68
2023/05/26 09:11:42;;;;;;;17.37;16.30;;;19.00;99.90;;;;;;5032856;28;20460;-68
2023/05/26 09:14:12;;;;;;;17.20;16.00;;;18.70;99.90;;;;;;5034882;28;20467;-69
2023/05/26 09:16:39;;;;;;;16.70;15.60;;;19.50;99.90;;;;;;5031734;28;20558;-68
2023/05/26 09:19:06;;;;;;;15.60;14.90;;;19.30;99.90;;;;;;5033479;28;20485;-69
2023/05/26 09:21:33;;;;;;;18.90;17.80;;;19.50;99.90;;;;;;5031372;28;20914;-68
2023/05/26 09:24:00;;;;;;;16.83;15.93;;;19.40;99.90;;;;;;5028267;28;20927;-69
2023/05/26 09:26:29;;;;;;;15.87;15.17;;;20.00;99.90;;;;;;5036418;28;20512;-69
2023/05/26 09:28:59;;;;;;;18.73;17.07;;;20.70;99.90;;;;;;5035320;28;20461;-69
2023/05/26 09:31:26;;;;;;;17.47;16.40;;;20.50;99.90;;;;;;5034235;28;20504;-69
2023/05/26 09:33:53;;;;;;;18.73;17.40;;;20.50;99.90;;;;;;5032333;28;20459;-69
2023/05/26 09:36:24;;;;;;;16.83;15.57;;;19.90;99.90;;;;;;5027229;28;20468;-69
2023/05/26 09:38:53;;;;;;;15.93;15.23;;;20.40;99.90;;;;;;5036932;28;20464;-69
2023/05/26 09:41:20;;;;;;;17.33;16.43;;;21.20;99.90;;;;;;5033463;28;21051;-68
2023/05/26 09:43:50;;;;;;;16.43;15.73;;;21.50;99.90;;;;;;5032671;28;20752;-69
2023/05/26 09:46:23;;;;;;;17.20;16.10;;;21.10;99.90;;;;;;5034916;28;20456;-69
2023/05/26 09:48:51;;;;;;;16.67;15.77;;;20.50;99.90;;;;;;5035038;28;20472;-69
2023/05/26 09:51:21;;;;;;;17.13;15.93;;;21.10;99.90;;;;;;5040767;28;20879;-69
2023/05/26 09:53:48;;;;;;;19.40;16.83;;;21.70;99.90;;;;;;5036995;28;20487;-68
2023/05/26 09:56:17;;;;;;;16.90;15.90;;;21.50;99.90;;;;;;5041111;28;20536;-68
2023/05/26 09:58:47;;;;;;;19.07;17.63;;;20.30;99.90;;;;;;5037030;28;20460;-69
2023/05/26 10:01:16;;;;;;;18.30;17.03;;;20.70;99.90;;;;;;5036365;28;20510;-69
2023/05/26 10:03:46;;;;;;;15.73;14.73;;;21.00;99.90;;;;;;5030068;28;20514;-69
2023/05/26 10:06:13;;;;;;;19.37;17.60;;;21.60;99.90;;;;;;5044466;28;20464;-69
2023/05/26 10:08:43;;;;;;;16.70;15.67;;;21.90;99.90;;;;;;5037958;28;20993;-69
2023/05/26 10:11:11;;;;;;;16.50;15.67;;;21.60;99.90;;;;;;5033537;28;21040;-69
2023/05/26 10:13:39;;;;;;;18.37;16.47;;;21.30;99.90;;;;;;5038824;28;20462;-69
2023/05/26 10:16:08;;;;;;;25.53;17.73;;;21.30;99.90;;;;;;5035781;28;20476;-69
2023/05/26 10:18:35;;;;;;;18.27;16.93;;;22.00;99.90;;;;;;5034236;28;20978;-68
2023/05/26 10:21:08;;;;;;;19.23;17.40;;;22.20;99.90;;;;;;5044928;28;20590;-69
2023/05/26 10:23:39;;;;;;;17.23;16.43;;;22.50;99.90;;;;;;5036960;28;20961;-69
2023/05/26 10:26:09;;;;;;;18.23;16.77;;;22.60;99.90;;;;;;5037934;28;20460;-69
2023/05/26 10:28:42;;;;;;;19.17;16.03;;;22.10;99.90;;;;;;5041036;28;20555;-69
2023/05/26 10:31:09;;;;;;;16.10;14.97;;;22.00;99.90;;;;;;5037440;28;20771;-69
2023/05/26 10:33:40;;;;;;;16.17;15.30;;;22.30;99.90;;;;;;5042233;28;20509;-69
2023/05/26 10:36:10;;;;;;;17.67;16.13;;;22.70;99.90;;;;;;5034127;28;20459;-69
2023/05/26 10:38:43;;;;;;;17.40;16.17;;;22.70;99.00;;;;;;5040835;28;20467;-69
2023/05/26 10:41:12;;;;;;;16.23;15.30;;;23.50;98.00;;;;;;5029456;28;20469;-69
2023/05/26 10:43:42;;;;;;;20.67;18.87;;;23.50;97.30;;;;;;5034029;28;20575;-69
2023/05/26 10:46:09;;;;;;;18.23;16.70;;;23.40;97.00;;;;;;5037897;28;20464;-69
2023/05/26 10:48:36;;;;;;;16.63;15.67;;;23.50;97.00;;;;;;5041901;28;20468;-69
2023/05/26 10:51:24;;;;;;;17.50;16.53;;;23.00;96.50;;;;;;5028452;28;20457;-69
2023/05/26 10:53:53;;;;;;;17.07;16.20;;;22.90;97.30;;;;;;5031287;28;20812;-69
2023/05/26 10:56:25;;;;;;;15.93;15.20;;;23.50;97.30;;;;;;5033717;28;21044;-69
2023/05/26 10:58:58;;;;;;;18.70;16.80;;;23.80;96.20;;;;;;5034215;28;20464;-69
2023/05/26 11:01:29;;;;;;;15.63;14.80;;;23.80;95.50;;;;;;5030845;28;20795;-70
2023/05/26 11:03:57;;;;;;;30.83;18.33;;;23.60;95.10;;;;;;5037428;28;20499;-69
2023/05/26 11:06:41;;;;;;;17.23;16.10;;;24.20;95.00;;;;;;5041720;28;20559;-69
2023/05/26 11:09:09;;;;;;;15.73;15.03;;;24.30;94.10;;;;;;5036229;28;20839;-70
2023/05/26 11:11:38;;;;;;;16.40;15.27;;;24.80;94.60;;;;;;5033336;28;20556;-69
2023/05/26 11:14:09;;;;;;;16.03;15.13;;;24.90;93.90;;;;;;5032016;28;20468;-69
2023/05/26 11:16:37;;;;;;;17.00;15.37;;;25.00;93.00;;;;;;5035823;28;20916;-69
2023/05/26 11:19:06;;;;;;;17.73;16.57;;;24.20;93.50;;;;;;5031270;28;20790;-69
2023/05/26 11:21:37;;;;;;;15.53;14.63;;;24.70;93.30;;;;;;5031159;28;20468;-69
2023/05/26 11:24:05;;;;;;;17.07;15.73;;;25.10;92.70;;;;;;5034217;28;20510;-68
2023/05/26 11:26:34;;;;;;;15.10;14.37;;;25.60;91.20;;;;;;5035328;28;20487;-69
2023/05/26 11:29:02;;;;;;;18.50;17.47;;;25.40;91.60;;;;;;5031637;28;20483;-69
2023/05/26 11:31:30;;;;;;;17.47;15.93;;;25.80;91.50;;;;;;5033371;28;20471;-69
2023/05/26 11:33:58;;;;;;;15.80;14.90;;;25.70;90.30;;;;;;5033126;28;20457;-70
2023/05/26 11:36:25;;;;;;;17.50;16.50;;;25.70;90.50;;;;;;5031011;28;20510;-69
2023/05/26 11:38:56;;;;;;;14.30;13.70;;;25.70;89.80;;;;;;5032575;28;20872;-69
2023/05/26 11:41:25;;;;;;;14.33;13.53;;;26.00;90.20;;;;;;5030547;28;20503;-69
2023/05/26 11:43:54;;;;;;;16.40;15.30;;;25.80;90.20;;;;;;5032489;28;20506;-69
2023/05/26 11:46:23;;;;;;;16.00;14.60;;;26.00;90.20;;;;;;5042629;28;20813;-69
2023/05/26 11:48:51;;;;;;;18.63;17.10;;;26.10;87.60;;;;;;5033236;28;20452;-69
2023/05/26 11:51:20;;;;;;;14.90;14.00;;;24.60;88.40;;;;;;5034724;28;20450;-69
2023/05/26 11:53:52;;;;;;;16.53;15.47;;;24.90;90.30;;;;;;5031005;28;20468;-69
2023/05/26 11:56:21;;;;;;;14.43;13.63;;;25.00;88.30;;;;;;5032773;28;20518;-69
2023/05/26 11:58:50;;;;;;;17.77;16.67;;;25.30;89.30;;;;;;5035479;28;20467;-69
2023/05/26 12:01:16;;;;;;;16.60;15.80;;;25.90;88.10;;;;;;5032702;28;20476;-69
2023/05/26 12:03:46;;;;;;;17.10;16.00;;;26.60;85.30;;;;;;5034234;28;20483;-69
2023/05/26 12:06:17;;;;;;;17.73;16.40;;;26.80;84.70;;;;;;5036899;28;20983;-69
2023/05/26 12:08:54;;;;;;;17.93;15.00;;;26.30;83.80;;;;;;5033221;28;20553;-69
2023/05/26 12:11:30;;;;;;;15.90;15.20;;;26.10;84.70;;;;;;5028873;28;20469;-69
2023/05/26 12:13:58;;;;;;;14.80;14.20;;;26.70;84.20;;;;;;5034954;28;20468;-69
2023/05/26 12:16:28;;;;;;;18.93;17.40;;;27.10;80.70;;;;;;5034305;28;20888;-69
2023/05/26 12:18:57;;;;;;;16.80;15.67;;;26.90;80.70;;;;;;5031509;28;20514;-69
2023/05/26 12:21:25;;;;;;;15.33;14.53;;;26.30;83.30;;;;;;5036280;28;20460;-69
2023/05/26 12:23:52;;;;;;;17.70;16.50;;;26.30;81.60;;;;;;5037388;28;20546;-69
2023/05/26 12:26:25;;;;;;;17.23;15.80;;;26.20;81.10;;;;;;5030887;28;20469;-69
2023/05/26 12:29:16;;;;;;;14.60;13.90;;;26.10;80.90;;;;;;5028420;28;20460;-69
2023/05/26 12:31:45;;;;;;;16.50;15.70;;;26.40;81.00;;;;;;5036935;28;20460;-69
2023/05/26 12:34:15;;;;;;;15.53;14.63;;;26.60;81.60;;;;;;5030484;28;20494;-69
2023/05/26 12:36:42;;;;;;;16.47;15.57;;;26.40;79.40;;;;;;5035269;28;20820;-69
2023/05/26 12:39:09;;;;;;;17.87;16.97;;;25.40;80.20;;;;;;5033583;28;20820;-69